createdAt,value
2022-09-17T00:03:09.979Z,0.80
2022-09-17T00:08:16.553Z,1.03
2022-09-17T00:13:22.265Z,0.80
2022-09-17T00:18:27.733Z,0.70
2022-09-17T00:23:33.304Z,0.67
2022-09-17T00:28:39.144Z,0.67
2022-09-17T00:33:44.605Z,0.80
2022-09-17T00:38:55.891Z,0.80
2022-09-17T00:44:03.853Z,1.30
2022-09-17T00:49:18.305Z,1.20
2022-09-17T00:54:24.674Z,1.00
2022-09-17T00:59:30.391Z,1.10
2022-09-17T01:04:35.868Z,1.10
2022-09-17T01:10:07.450Z,0.80
2022-09-17T01:15:35.453Z,1.10
2022-09-17T01:21:02.102Z,0.73
2022-09-17T01:26:16.648Z,0.90
2022-09-17T01:31:37.391Z,1.30
2022-09-17T01:36:57.619Z,1.00
2022-09-17T01:42:18.830Z,1.57
2022-09-17T01:47:26.787Z,1.37
2022-09-17T01:52:35.515Z,2.30
2022-09-17T01:57:56.104Z,1.80
2022-09-17T02:03:13.446Z,1.90
2022-09-17T02:08:26.229Z,2.30
2022-09-17T02:13:34.724Z,2.37
2022-09-17T02:18:45.942Z,2.20
2022-09-17T02:24:04.172Z,2.60
2022-09-17T02:29:12.743Z,2.67
2022-09-17T02:34:18.431Z,2.77
2022-09-17T02:39:24.191Z,2.70
2022-09-17T02:44:55.392Z,2.87
2022-09-17T02:50:20.160Z,3.43
2022-09-17T02:55:46.551Z,3.30
2022-09-17T03:00:53.343Z,4.47
2022-09-17T03:05:59.089Z,4.20
2022-09-17T03:11:05.992Z,4.03
2022-09-17T03:16:11.829Z,4.97
2022-09-17T03:21:17.353Z,3.90
2022-09-17T03:26:22.820Z,4.47
2022-09-17T03:31:29.473Z,4.57
2022-09-17T03:36:35.068Z,4.60
2022-09-17T03:41:40.614Z,4.60
2022-09-17T03:46:46.463Z,4.27
2022-09-17T03:51:51.967Z,4.10
2022-09-17T03:56:57.349Z,3.67
2022-09-17T04:02:03.118Z,3.73
2022-09-17T04:07:08.841Z,3.70
2022-09-17T04:12:14.591Z,3.70
2022-09-17T04:17:20.141Z,2.93
2022-09-17T04:22:26.069Z,3.53
2022-09-17T04:27:31.449Z,3.93
2022-09-17T04:32:36.956Z,3.87
2022-09-17T04:37:42.370Z,3.23
2022-09-17T04:42:47.754Z,3.80
2022-09-17T04:47:53.505Z,3.43
2022-09-17T04:52:58.893Z,2.87
2022-09-17T04:58:04.643Z,3.60
2022-09-17T05:03:10.588Z,3.23
2022-09-17T05:08:15.970Z,2.97
2022-09-17T05:13:21.622Z,3.07
2022-09-17T05:18:27.014Z,2.90
2022-09-17T05:23:32.385Z,2.73
2022-09-17T05:28:37.761Z,2.70
2022-09-17T05:33:43.162Z,2.57
2022-09-17T05:38:48.740Z,3.00
2022-09-17T05:43:54.204Z,3.03
2022-09-17T05:48:59.877Z,2.63
2022-09-17T05:54:05.411Z,2.67
2022-09-17T05:59:11.000Z,2.93
2022-09-17T06:04:18.038Z,3.07
2022-09-17T06:09:23.406Z,2.63
2022-09-17T06:14:29.128Z,2.83
2022-09-17T06:19:34.545Z,2.93
2022-09-17T06:24:39.957Z,3.13
2022-09-17T06:29:45.410Z,2.60
2022-09-17T06:34:50.869Z,2.90
2022-09-17T06:39:56.452Z,3.13
2022-09-17T06:45:07.128Z,3.03
2022-09-17T06:50:09.516Z,2.53
2022-09-17T06:55:16.011Z,2.47
2022-09-17T07:00:21.757Z,2.43
2022-09-17T07:05:28.169Z,3.07
2022-09-17T07:10:33.726Z,1.97
2022-09-17T07:15:39.412Z,1.90
2022-09-17T07:20:44.899Z,1.73
2022-09-17T07:25:58.857Z,2.07
2022-09-17T07:31:05.816Z,1.90
2022-09-17T07:36:13.722Z,1.83
2022-09-17T07:41:19.630Z,1.40
2022-09-17T07:46:25.322Z,1.57
2022-09-17T07:51:30.784Z,1.60
2022-09-17T07:56:36.435Z,0.90
2022-09-17T08:01:42.554Z,1.10
2022-09-17T08:06:51.177Z,0.90
2022-09-17T08:11:57.120Z,0.80
2022-09-17T08:17:02.591Z,0.90
2022-09-17T08:22:07.972Z,0.83
2022-09-17T08:27:14.011Z,1.20
2022-09-17T08:32:19.662Z,1.10
2022-09-17T08:37:25.196Z,1.30
2022-09-17T08:42:42.832Z,1.30
2022-09-17T08:47:48.898Z,2.00
2022-09-17T08:53:30.989Z,1.50
2022-09-17T08:58:59.229Z,2.37
2022-09-17T09:04:19.771Z,1.90
2022-09-17T09:09:28.428Z,1.67
2022-09-17T09:14:39.701Z,1.90
2022-09-17T09:19:47.739Z,1.67
2022-09-17T09:24:58.949Z,1.60
2022-09-17T09:30:13.588Z,1.80
2022-09-17T09:35:22.070Z,2.20
2022-09-17T09:40:44.864Z,1.90
2022-09-17T09:46:26.128Z,2.00
2022-09-17T09:51:54.435Z,1.93
2022-09-17T09:57:07.590Z,1.87
2022-09-17T10:02:13.877Z,1.93
2022-09-17T10:07:19.597Z,1.60
2022-09-17T10:12:25.058Z,1.80
2022-09-17T10:17:30.732Z,1.67
2022-09-17T10:22:38.932Z,2.00
2022-09-17T10:27:46.476Z,1.50
2022-09-17T10:33:14.615Z,1.47
2022-09-17T10:38:32.030Z,1.17
2022-09-17T10:43:37.680Z,1.03
2022-09-17T10:48:46.020Z,0.90
2022-09-17T10:54:03.162Z,1.10
2022-09-17T10:59:26.654Z,0.70
2022-09-17T11:04:50.031Z,1.03
2022-09-17T11:10:04.497Z,1.47
2022-09-17T11:15:31.180Z,1.70
2022-09-17T11:20:48.750Z,1.70
2022-09-17T11:26:01.098Z,1.83
2022-09-17T11:31:23.883Z,1.83
2022-09-17T11:36:41.182Z,2.43
2022-09-17T11:41:49.967Z,2.10
2022-09-17T11:46:58.489Z,1.80
2022-09-17T11:52:27.961Z,2.30
2022-09-17T11:57:36.650Z,2.77
2022-09-17T12:02:59.785Z,1.97
2022-09-17T12:08:29.003Z,2.43
2022-09-17T12:13:55.638Z,2.43
2022-09-17T12:19:36.214Z,1.60
2022-09-17T12:24:42.569Z,1.80
2022-09-17T12:30:09.118Z,2.30
2022-09-17T12:35:20.493Z,1.50
2022-09-17T12:40:57.726Z,1.77
2022-09-17T12:46:30.454Z,1.90
2022-09-17T12:51:41.899Z,2.07
2022-09-17T12:56:58.901Z,1.77
2022-09-17T13:02:07.421Z,1.30
2022-09-17T13:07:39.859Z,1.00
2022-09-17T13:13:00.325Z,1.20
2022-09-17T13:18:27.261Z,1.10
2022-09-17T13:23:43.652Z,1.20
2022-09-17T13:28:53.418Z,1.43
2022-09-17T13:34:03.264Z,1.53
2022-09-17T13:39:11.906Z,1.93
2022-09-17T13:44:20.460Z,2.37
2022-09-17T13:49:26.356Z,1.73
2022-09-17T13:54:39.592Z,1.50
2022-09-17T13:59:49.337Z,1.80
2022-09-17T14:04:57.531Z,2.17
2022-09-17T14:10:15.048Z,1.80
2022-09-17T14:15:39.532Z,1.47
2022-09-17T14:20:45.881Z,2.00
2022-09-17T14:25:56.913Z,1.13
2022-09-17T14:31:05.701Z,1.57
2022-09-17T14:36:14.185Z,1.73
2022-09-17T14:41:28.468Z,1.80
2022-09-17T14:46:46.304Z,1.60
2022-09-17T14:51:51.085Z,2.10
2022-09-17T14:57:02.267Z,1.90
2022-09-17T15:02:16.541Z,1.30
2022-09-17T15:07:23.358Z,1.33
2022-09-17T15:12:30.860Z,1.57
2022-09-17T15:17:36.822Z,1.47
2022-09-17T15:22:43.940Z,1.60
2022-09-17T15:27:49.464Z,1.20
2022-09-17T15:32:57.267Z,1.57
2022-09-17T15:38:24.330Z,1.40
2022-09-17T15:43:32.734Z,1.30
2022-09-17T15:48:39.807Z,0.93
2022-09-17T15:53:53.618Z,1.20
2022-09-17T15:59:02.862Z,1.40
2022-09-17T16:04:19.994Z,1.60
2022-09-17T16:09:43.718Z,1.40
2022-09-17T16:14:51.704Z,1.40
2022-09-17T16:20:01.414Z,1.33
2022-09-17T16:25:06.869Z,1.10
2022-09-17T16:30:15.372Z,1.30
2022-09-17T16:35:22.997Z,1.50
2022-09-17T16:40:28.843Z,1.20
2022-09-17T16:45:34.261Z,0.80
2022-09-17T16:50:41.951Z,1.47
2022-09-17T16:55:47.519Z,1.00
2022-09-17T17:00:53.373Z,1.37
2022-09-17T17:05:58.756Z,0.80
2022-09-17T17:11:04.233Z,1.00
2022-09-17T17:16:14.871Z,0.93
2022-09-17T17:21:21.553Z,1.07
2022-09-17T17:26:26.951Z,1.10
2022-09-17T17:31:32.494Z,1.10
2022-09-17T17:36:37.897Z,1.50
2022-09-17T17:41:43.466Z,1.40
2022-09-17T17:46:49.014Z,1.30
2022-09-17T17:51:54.775Z,1.20
2022-09-17T17:57:00.167Z,0.70
2022-09-17T18:02:05.814Z,1.13
2022-09-17T18:07:11.370Z,1.00
2022-09-17T18:12:17.557Z,1.10
2022-09-17T18:17:24.561Z,1.17
2022-09-17T18:22:29.994Z,1.17
2022-09-17T18:27:35.411Z,1.00
2022-09-17T18:32:40.811Z,1.23
2022-09-17T18:37:46.280Z,1.20
2022-09-17T18:42:51.682Z,1.00
2022-09-17T18:47:57.194Z,1.33
2022-09-17T18:53:03.076Z,1.53
2022-09-17T18:58:08.703Z,1.50
2022-09-17T19:03:14.306Z,1.57
2022-09-17T19:08:23.917Z,0.90
2022-09-17T19:13:34.946Z,1.00
2022-09-17T19:18:41.475Z,0.60
2022-09-17T19:23:49.165Z,0.77
2022-09-17T19:28:58.019Z,0.50
2022-09-17T19:34:05.145Z,0.70
2022-09-17T19:39:11.579Z,0.43
2022-09-17T19:44:18.308Z,1.03
2022-09-17T19:49:24.609Z,0.83
2022-09-17T19:54:30.085Z,0.50
2022-09-17T19:59:35.518Z,0.60
2022-09-17T20:04:41.286Z,0.33
2022-09-17T20:09:48.736Z,0.40
2022-09-17T20:14:55.145Z,0.57
2022-09-17T20:20:00.927Z,0.70
2022-09-17T20:25:07.295Z,0.50
2022-09-17T20:30:14.086Z,0.50
2022-09-17T20:35:19.543Z,0.50
2022-09-17T20:40:25.453Z,0.83
2022-09-17T20:45:31.229Z,0.50
2022-09-17T20:50:36.825Z,0.87
2022-09-17T20:55:42.259Z,0.70
2022-09-17T21:00:47.740Z,0.50
2022-09-17T21:05:53.141Z,1.03
2022-09-17T21:10:58.761Z,0.60
2022-09-17T21:16:04.584Z,0.83
2022-09-17T21:21:13.553Z,0.80
2022-09-17T21:26:21.495Z,0.70
2022-09-17T21:31:32.306Z,0.60
2022-09-17T21:36:38.785Z,0.60
2022-09-17T21:41:46.000Z,0.70
2022-09-17T21:46:53.115Z,0.90
2022-09-17T21:51:58.543Z,0.53
2022-09-17T21:57:04.011Z,0.67
2022-09-17T22:02:09.606Z,0.67
2022-09-17T22:07:15.053Z,0.80
2022-09-17T22:12:20.434Z,1.00
2022-09-17T22:17:26.298Z,0.80
2022-09-17T22:22:31.757Z,0.90
2022-09-17T22:27:37.139Z,0.90
2022-09-17T22:32:42.527Z,1.00
2022-09-17T22:37:47.944Z,0.83
2022-09-17T22:42:53.361Z,1.20
2022-09-17T22:47:58.766Z,1.03
2022-09-17T22:53:04.198Z,1.10
2022-09-17T22:58:09.853Z,1.03
2022-09-17T23:03:15.287Z,1.07
2022-09-17T23:08:20.670Z,1.20
2022-09-17T23:13:26.124Z,1.03
2022-09-17T23:18:32.524Z,1.07
2022-09-17T23:23:38.450Z,1.00
2022-09-17T23:28:44.408Z,1.20
2022-09-17T23:33:50.606Z,1.20
2022-09-17T23:38:57.585Z,1.90
2022-09-17T23:44:09.415Z,1.30
2022-09-17T23:49:15.284Z,1.20
2022-09-17T23:54:20.681Z,1.27
2022-09-17T23:59:27.615Z,1.50
